Vidnoe — UBDU — position and weather

sailwx.info

Track history (hours):
 
Tides and Currents Weather Stations Pressure Air Temp Water Temp Dewpoint Dewpoint Depression Visibility Wind Speed Wind Dir Waves Ship Positions

Vidnoe

Last reported at 2017-Aug-19 01:28 UTC. Time now 2017-Aug-19 01:46 UTC.
Position N 59°53' E 030°13'.

Length 115 m; beam 17 m.

Type: Tanker. MMSI: 273516400.

Date/timePositionNaut miles runAvg speedWind from/ knotsBaromVisibWave heightAir tempDewpointWater temp
2017-Aug-19 01:28N 59°53' E 030°13'0 0.0
2017-Aug-19 00:58N 59°53' E 030°13'0 0.0
2017-Aug-19 00:28N 59°53' E 030°13'0 0.0
2017-Aug-18 23:58N 59°53' E 030°13'0 0.0
2017-Aug-18 23:28N 59°53' E 030°13'0 0.0
2017-Aug-18 22:58N 59°53' E 030°13'0 0.0
2017-Aug-18 22:22N 59°53' E 030°13'0 0.0
2017-Aug-18 21:58N 59°53' E 030°13'0 0.0
2017-Aug-18 21:28N 59°53' E 030°13'0 0.0
2017-Aug-18 20:58N 59°53' E 030°13'0 0.0
2017-Aug-18 20:28N 59°53' E 030°13'0 0.0
2017-Aug-18 19:58N 59°53' E 030°13'0 0.0
2017-Aug-18 19:28N 59°53' E 030°13'0 0.0
2017-Aug-18 18:58N 59°53' E 030°13'0 0.0
2017-Aug-18 18:28N 59°53' E 030°13'0 0.0
2017-Aug-18 17:58N 59°53' E 030°13'0 0.0
2017-Aug-18 17:28N 59°53' E 030°13'0 0.0
2017-Aug-18 16:58N 59°53' E 030°13'0 0.0
2017-Aug-18 16:28N 59°53' E 030°13'0 0.0
2017-Aug-18 15:58N 59°53' E 030°13'0 0.0
2017-Aug-18 15:28N 59°53' E 030°13'0 0.0
2017-Aug-18 14:58N 59°53' E 030°13'0 0.0
2017-Aug-18 14:25N 59°53' E 030°13'0 0.0
2017-Aug-18 13:22N 59°53' E 030°13'0 0.0
2017-Aug-18 12:58N 59°53' E 030°13'0 0.1
2017-Aug-18 12:28N 59°53' E 030°13'0 0.1
2017-Aug-18 11:58N 59°53' E 030°13'0 0.0
2017-Aug-18 11:28N 59°53' E 030°13'0 0.0
2017-Aug-18 10:58N 59°53' E 030°13'0 0.0
2017-Aug-18 10:28N 59°53' E 030°13'0 0.0
2017-Aug-18 09:55N 59°53' E 030°13'0 0.0
2017-Aug-18 09:28N 59°53' E 030°13'0 0.0
2017-Aug-18 08:58N 59°53' E 030°13'0 0.0
2017-Aug-18 08:28N 59°53' E 030°13'0 0.0
2017-Aug-18 07:58N 59°53' E 030°13'0 0.0
2017-Aug-18 07:28N 59°53' E 030°13'0 0.0
2017-Aug-18 06:58N 59°53' E 030°13'0 0.0
2017-Aug-18 06:28N 59°53' E 030°13'0 0.0
2017-Aug-18 05:58N 59°53' E 030°13'0 0.0
2017-Aug-18 05:28N 59°53' E 030°13'0 0.0
2017-Aug-18 04:58N 59°53' E 030°13'0 0.0
2017-Aug-18 04:28N 59°53' E 030°13'0 0.2
2017-Aug-18 04:00N 59°53' E 030°13'1 1.6
2017-Aug-18 03:30N 59°53' E 030°12'3 6.1
2017-Aug-18 03:01N 59°54' E 030°06'611.4
2017-Aug-18 02:30N 59°56' E 029°56'510.8
2017-Aug-18 02:00N 59°59' E 029°46'5 9.3
2017-Aug-18 01:30N 60°00' E 029°37'611.0
2017-Aug-18 01:00N 60°01' E 029°26'1 2.8
2017-Aug-18 00:30N 60°01' E 029°24'0 0.2
2017-Aug-17 23:55N 60°01' E 029°24'0 0.1
2017-Aug-17 23:28N 60°01' E 029°24'0 0.0
2017-Aug-17 22:52N 60°01' E 029°24'0 0.0
2017-Aug-17 22:28N 60°01' E 029°24'0 0.0
2017-Aug-17 20:42N 60°01' E 029°24'0 0.0
2017-Aug-17 20:24N 60°01' E 029°24'0 0.0
2017-Aug-17 19:54N 60°01' E 029°24'0 0.0
2017-Aug-17 19:27N 60°01' E 029°24'0 0.0
2017-Aug-17 18:14N 60°01' E 029°24'0 0.0
2017-Aug-17 17:59N 60°01' E 029°24'0 0.0
2017-Aug-17 17:23N 60°01' E 029°24'0 0.2
2017-Aug-17 17:00N 60°01' E 029°24'0 0.0
2017-Aug-17 16:30N 60°01' E 029°24'0 0.0
2017-Aug-17 16:00N 60°01' E 029°24'1 1.7
2017-Aug-17 15:28N 60°01' E 029°22'5 8.7
2017-Aug-17 14:56N 60°02' E 029°13'512.3
2017-Aug-17 14:30N 60°02' E 029°02'611.2
2017-Aug-17 14:00N 60°02' E 028°51'611.7
2017-Aug-17 13:30N 60°02' E 028°39'612.8
2017-Aug-17 13:01N 60°03' E 028°27'510.6
2017-Aug-17 12:30N 60°06' E 028°18'611.5
2017-Aug-17 12:00N 60°08' E 028°07'611.8
2017-Aug-17 11:30N 60°10' E 027°56'611.8
2017-Aug-17 11:00N 60°10' E 027°44'612.2
2017-Aug-17 10:30N 60°07' E 027°34'612.9
2017-Aug-17 10:01N 60°04' E 027°23'612.1
2017-Aug-17 09:30N 60°01' E 027°12'611.7
2017-Aug-17 09:01N 59°58' E 027°02'612.3
2017-Aug-17 08:30N 59°59' E 026°50'612.3
2017-Aug-17 08:00N 59°59' E 026°37'612.7
2017-Aug-17 07:30N 59°58' E 026°25'612.1
2017-Aug-17 07:00N 59°56' E 026°14'612.4
2017-Aug-17 06:30N 59°54' E 026°02'612.4
2017-Aug-17 06:00N 59°53' E 025°50'612.8
2017-Aug-17 05:30N 59°51' E 025°37'612.4
2017-Aug-17 05:00N 59°50' E 025°25'612.8
2017-Aug-17 04:30N 59°49' E 025°13'713.0
2017-Aug-17 04:00N 59°47' E 025°00'612.5
2017-Aug-17 03:30N 59°46' E 024°48'612.4
2017-Aug-17 03:01N 59°45' E 024°36'612.3
2017-Aug-17 02:30N 59°43' E 024°24'612.7
2017-Aug-17 02:01N 59°42' E 024°12'612.7
2017-Aug-17 01:30N 59°40' E 023°60'612.3
2017-Aug-17 01:00N 59°38' E 023°48'611.8
2017-Aug-17 00:30N 59°36' E 023°37'611.7
2017-Aug-17 00:00N 59°34' E 023°26'611.5
2017-Aug-16 23:30N 59°32' E 023°16'611.5
2017-Aug-16 23:00N 59°30' E 023°05'611.8
2017-Aug-16 22:30N 59°28' E 022°54'611.6
2017-Aug-16 22:01N 59°26' E 022°43'611.6
2017-Aug-16 21:30N 59°23' E 022°34'612.5
2017-Aug-16 21:00N 59°19' E 022°24'713.2
2017-Aug-16 20:31N 59°15' E 022°14'612.3
2017-Aug-16 20:00N 59°11' E 022°05'611.8
2017-Aug-16 19:30N 59°07' E 021°56'5 9.7
2017-Aug-16 19:00N 59°04' E 021°48'611.8
2017-Aug-16 18:30N 59°00' E 021°40'612.5
2017-Aug-16 18:00N 58°55' E 021°36'612.5
2017-Aug-16 17:30N 58°49' E 021°32'712.4
2017-Aug-16 16:57N 58°42' E 021°28'912.9
2017-Aug-16 16:15N 58°33' E 021°23'512.7
2017-Aug-16 15:50N 58°28' E 021°19'912.7
2017-Aug-16 15:09N 58°20' E 021°14'612.7
2017-Aug-16 14:41N 58°15' E 021°10'213.1
2017-Aug-16 14:30N 58°13' E 021°09'714.6
2017-Aug-16 14:00N 58°06' E 021°04'713.8
2017-Aug-16 13:30N 57°59' E 021°01'713.3
2017-Aug-16 13:00N 57°53' E 020°57'713.2
2017-Aug-16 12:30N 57°46' E 020°53'713.5
2017-Aug-16 12:00N 57°40' E 020°50'713.2
2017-Aug-16 11:30N 57°34' E 020°47'713.4
2017-Aug-16 11:00N 57°27' E 020°44'713.2
2017-Aug-16 10:30N 57°21' E 020°41'612.3
2017-Aug-16 10:00N 57°15' E 020°38'712.7
2017-Aug-16 09:29N 57°08' E 020°35'714.3
2017-Aug-16 09:00N 57°02' E 020°32'612.7
2017-Aug-16 08:30N 56°55' E 020°29'612.5
2017-Aug-16 08:00N 56°49' E 020°26'714.4
2017-Aug-16 07:30N 56°42' E 020°23'712.7
2017-Aug-16 06:59N 56°36' E 020°20'612.9
2017-Aug-16 06:30N 56°30' E 020°17'712.7
2017-Aug-16 06:00N 56°24' E 020°14'714.1
2017-Aug-16 05:29N 56°17' E 020°11'611.4
2017-Aug-16 04:59N 56°11' E 020°08'712.8
2017-Aug-16 04:28N 56°05' E 020°06'713.0
2017-Aug-16 03:56N 55°58' E 020°02'613.0
2017-Aug-16 03:30N 55°53' E 019°60'713.1
2017-Aug-16 03:00N 55°46' E 019°57'713.2
2017-Aug-16 02:31N 55°40' E 019°54'713.2
2017-Aug-16 02:00N 55°33' E 019°51'713.2
2017-Aug-16 01:30N 55°27' E 019°48'713.1
2017-Aug-16 01:01N 55°21' E 019°45'713.2
2017-Aug-16 00:31N 55°14' E 019°43'713.3
2017-Aug-16 00:01N 55°08' E 019°40'612.8
2017-Aug-15 23:31N 55°02' E 019°38'713.1
2017-Aug-15 23:00N 54°55' E 019°38'613.0
2017-Aug-15 22:31N 54°49' E 019°38'611.4
2017-Aug-15 22:01N 54°43' E 019°41'713.1
2017-Aug-15 21:31N 54°39' E 019°51'4 9.0
2017-Aug-15 21:01N 54°38' E 019°58'5 9.6
2017-Aug-15 20:31N 54°39' E 020°06'5 8.1
2017-Aug-15 19:50N 54°41' E 020°15'3 8.4
2017-Aug-15 19:31N 54°41' E 020°20'5 0.4
2017-Aug-15 07:23N 54°42' E 020°28'0 0.0
2017-Aug-15 06:59N 54°42' E 020°28'0 0.0
2017-Aug-15 06:29N 54°42' E 020°28'0 0.0
2017-Aug-15 05:59N 54°42' E 020°28'0 0.0
2017-Aug-15 05:29N 54°42' E 020°28'0 0.0
2017-Aug-15 04:59N 54°42' E 020°28'0 0.0
2017-Aug-15 04:29N 54°42' E 020°28'0 0.0
2017-Aug-15 03:56N 54°42' E 020°28'0 0.0
2017-Aug-15 03:29N 54°42' E 020°28'0 0.0
2017-Aug-15 02:59N 54°42' E 020°28'0 0.0
2017-Aug-15 02:30N 54°42' E 020°28'1 1.0
2017-Aug-15 01:59N 54°42' E 020°27'3 6.1
2017-Aug-15 01:30N 54°41' E 020°22'4 7.6
2017-Aug-15 01:00N 54°41' E 020°15'4 7.4
2017-Aug-15 00:30N 54°40' E 020°09'4 7.6
2017-Aug-15 00:00N 54°39' E 020°03'4 7.6
2017-Aug-14 23:30N 54°38' E 019°57'4 7.4
2017-Aug-14 23:00N 54°39' E 019°51'1 2.5
2017-Aug-14 22:29N 54°39' E 019°49'0 0.0
2017-Aug-14 03:11N 54°39' E 019°49'0 0.0
2017-Aug-13 11:11N 54°39' E 019°49'0 0.0
2017-Aug-13 10:59N 54°39' E 019°49'0 0.0
2017-Aug-13 07:53N 54°39' E 019°49'0 0.0
2017-Aug-13 06:50N 54°39' E 019°49'0 0.0
2017-Aug-13 06:20N 54°39' E 019°49'0 0.0
2017-Aug-13 05:08N 54°39' E 019°49'0 0.0
2017-Aug-13 03:59N 54°39' E 019°49'0 0.0
2017-Aug-13 03:17N 54°39' E 019°49'0 0.0
2017-Aug-13 02:59N 54°39' E 019°49'0 0.0
2017-Aug-13 02:29N 54°39' E 019°49'0 0.0
2017-Aug-13 01:59N 54°39' E 019°49'0 0.0
2017-Aug-13 01:29N 54°39' E 019°49'0 0.0
2017-Aug-12 23:56N 54°39' E 019°49'0 0.0
2017-Aug-12 23:29N 54°39' E 019°49'0 0.0
2017-Aug-12 22:59N 54°39' E 019°49'0 0.0
2017-Aug-12 22:29N 54°39' E 019°49'0 0.0
2017-Aug-12 19:17N 54°39' E 019°49'0 0.0
2017-Aug-12 18:59N 54°39' E 019°49'0 0.0
2017-Aug-12 18:17N 54°39' E 019°49'0 0.0
2017-Aug-12 17:59N 54°39' E 019°49'0 0.0
2017-Aug-12 17:02N 54°39' E 019°49'0 0.1
2017-Aug-12 16:56N 54°39' E 019°49'0 0.0
2017-Aug-12 16:05N 54°39' E 019°49'0 0.0
2017-Aug-12 14:56N 54°39' E 019°49'0 0.0
2017-Aug-12 14:29N 54°39' E 019°49'0 0.0
2017-Aug-12 13:59N 54°39' E 019°49'0 0.0
2017-Aug-12 13:29N 54°39' E 019°49'0 0.0
2017-Aug-12 12:53N 54°39' E 019°49'0 0.0
2017-Aug-12 12:29N 54°39' E 019°49'0 0.0
2017-Aug-12 11:59N 54°39' E 019°49'0 0.0
2017-Aug-12 11:29N 54°39' E 019°49'0 0.0
2017-Aug-12 10:56N 54°39' E 019°49'0 0.0
2017-Aug-12 10:29N 54°39' E 019°49'0 0.0
2017-Aug-12 09:59N 54°39' E 019°49'0 0.0
2017-Aug-12 09:17N 54°39' E 019°49'0 0.0
2017-Aug-12 08:59N 54°39' E 019°49'0 0.0
2017-Aug-12 08:29N 54°39' E 019°49'0 0.0
2017-Aug-12 07:56N 54°39' E 019°49'0 0.0
2017-Aug-12 07:29N 54°39' E 019°49'0 0.0
2017-Aug-12 06:56N 54°39' E 019°49'0 0.2
2017-Aug-12 06:23N 54°39' E 019°49'0 0.1
2017-Aug-12 05:59N 54°39' E 019°49'0 0.1
2017-Aug-12 05:29N 54°39' E 019°49'0 0.2
2017-Aug-12 04:59N 54°39' E 019°49'0 0.2
2017-Aug-12 04:29N 54°39' E 019°49'0 0.2
2017-Aug-12 03:53N 54°39' E 019°49'0 0.1
2017-Aug-12 03:05N 54°38' E 019°49'0 0.0
2017-Aug-12 02:47N 54°38' E 019°49'0 0.0
2017-Aug-12 02:29N 54°38' E 019°49'0 0.0
2017-Aug-12 01:59N 54°38' E 019°49'0 0.0
2017-Aug-11 16:53N 54°38' E 019°48'0 0.0
2017-Aug-11 16:17N 54°38' E 019°48'0 0.0
2017-Aug-11 15:59N 54°38' E 019°48'0 0.0
2017-Aug-11 15:23N 54°38' E 019°48'0 0.0
2017-Aug-11 14:59N 54°38' E 019°48'0 0.0
2017-Aug-11 14:23N 54°38' E 019°48'0 0.0
2017-Aug-11 10:17N 54°38' E 019°48'0 0.0
2017-Aug-11 09:14N 54°38' E 019°48'0 0.0
2017-Aug-11 08:59N 54°38' E 019°48'0 0.0
2017-Aug-11 08:29N 54°38' E 019°48'0 0.1
2017-Aug-11 07:59N 54°38' E 019°48'0 0.0
2017-Aug-11 07:23N 54°38' E 019°48'0 0.1
2017-Aug-11 06:53N 54°38' E 019°48'0 0.2
2017-Aug-11 06:26N 54°39' E 019°48'0 0.1
2017-Aug-11 05:59N 54°38' E 019°48'0 0.0
2017-Aug-11 05:29N 54°38' E 019°48'0 0.0
2017-Aug-11 04:59N 54°38' E 019°48'0 0.0
2017-Aug-11 04:29N 54°38' E 019°48'0 0.0
2017-Aug-11 03:59N 54°38' E 019°48'0 0.0
2017-Aug-11 03:29N 54°38' E 019°48'0 0.0
2017-Aug-11 02:59N 54°38' E 019°48'0 0.0
2017-Aug-11 02:29N 54°38' E 019°48'0 0.0
2017-Aug-11 01:59N 54°38' E 019°48'0 0.0
2017-Aug-11 01:29N 54°38' E 019°48'0 0.0
2017-Aug-11 00:59N 54°38' E 019°48'0 0.0
2017-Aug-11 00:29N 54°38' E 019°48'0 0.0
2017-Aug-10 23:59N 54°38' E 019°48'0 0.0
2017-Aug-10 23:29N 54°38' E 019°48'0 0.0
2017-Aug-10 22:59N 54°38' E 019°48'0 0.0
2017-Aug-10 22:29N 54°38' E 019°48'0 0.0
2017-Aug-10 21:59N 54°38' E 019°48'0 0.0
2017-Aug-10 21:29N 54°38' E 019°48'0 0.0
2017-Aug-10 20:59N 54°38' E 019°48'0 0.0
2017-Aug-10 20:29N 54°38' E 019°48'0 0.0
2017-Aug-10 19:59N 54°38' E 019°48'0 0.0
2017-Aug-10 19:29N 54°38' E 019°48'0 0.0
2017-Aug-10 18:59N 54°38' E 019°48'0 0.0
2017-Aug-10 18:29N 54°38' E 019°48'0 0.0
2017-Aug-10 17:59N 54°38' E 019°48'0 0.0
2017-Aug-10 17:29N 54°38' E 019°48'0 0.0
2017-Aug-10 16:59N 54°38' E 019°48'0 0.0
2017-Aug-10 16:29N 54°38' E 019°48'0 0.0
2017-Aug-10 15:59N 54°38' E 019°48'0 0.0
2017-Aug-10 15:29N 54°38' E 019°48'0 0.0
2017-Aug-10 14:59N 54°38' E 019°48'0 0.0
2017-Aug-10 14:26N 54°38' E 019°48'0 0.2
2017-Aug-10 13:47N 54°39' E 019°49'1 3.1
2017-Aug-10 13:26N 54°39' E 019°49'2 4.3
2017-Aug-10 12:52N 54°38' E 019°53'3 6.6
2017-Aug-10 12:29N 54°38' E 019°57'3 6.7
2017-Aug-10 12:00N 54°39' E 020°03'15 2.2
2017-Aug-10 04:56N 54°42' E 020°29'  
Track history (hours):
 
Tides and Currents Weather Stations Pressure Air Temp Water Temp Dewpoint Dewpoint Depression Visibility Wind Speed Wind Dir Waves Ship Positions

Vidnoe

Last reported at 2017-Aug-19 01:28 UTC. Time now 2017-Aug-19 01:46 UTC.
Position N 59°53' E 030°13'.

Length 115 m; beam 17 m.

Type: Tanker. MMSI: 273516400.

Date/timePositionNaut miles runAvg speedWind from/ knotsBaromVisibWave heightAir tempDewpointWater temp
2017-Aug-19 01:28N 59°53' E 030°13'0 0.0
2017-Aug-19 00:58N 59°53' E 030°13'0 0.0
2017-Aug-19 00:28N 59°53' E 030°13'0 0.0
2017-Aug-18 23:58N 59°53' E 030°13'0 0.0
2017-Aug-18 23:28N 59°53' E 030°13'0 0.0
2017-Aug-18 22:58N 59°53' E 030°13'0 0.0
2017-Aug-18 22:22N 59°53' E 030°13'0 0.0
2017-Aug-18 21:58N 59°53' E 030°13'0 0.0
2017-Aug-18 21:28N 59°53' E 030°13'0 0.0
2017-Aug-18 20:58N 59°53' E 030°13'0 0.0
2017-Aug-18 20:28N 59°53' E 030°13'0 0.0
2017-Aug-18 19:58N 59°53' E 030°13'0 0.0
2017-Aug-18 19:28N 59°53' E 030°13'0 0.0
2017-Aug-18 18:58N 59°53' E 030°13'0 0.0
2017-Aug-18 18:28N 59°53' E 030°13'0 0.0
2017-Aug-18 17:58N 59°53' E 030°13'0 0.0
2017-Aug-18 17:28N 59°53' E 030°13'0 0.0
2017-Aug-18 16:58N 59°53' E 030°13'0 0.0
2017-Aug-18 16:28N 59°53' E 030°13'0 0.0
2017-Aug-18 15:58N 59°53' E 030°13'0 0.0
2017-Aug-18 15:28N 59°53' E 030°13'0 0.0
2017-Aug-18 14:58N 59°53' E 030°13'0 0.0
2017-Aug-18 14:25N 59°53' E 030°13'0 0.0
2017-Aug-18 13:22N 59°53' E 030°13'0 0.0
2017-Aug-18 12:58N 59°53' E 030°13'0 0.1
2017-Aug-18 12:28N 59°53' E 030°13'0 0.1
2017-Aug-18 11:58N 59°53' E 030°13'0 0.0
2017-Aug-18 11:28N 59°53' E 030°13'0 0.0
2017-Aug-18 10:58N 59°53' E 030°13'0 0.0
2017-Aug-18 10:28N 59°53' E 030°13'0 0.0
2017-Aug-18 09:55N 59°53' E 030°13'0 0.0
2017-Aug-18 09:28N 59°53' E 030°13'0 0.0
2017-Aug-18 08:58N 59°53' E 030°13'0 0.0
2017-Aug-18 08:28N 59°53' E 030°13'0 0.0
2017-Aug-18 07:58N 59°53' E 030°13'0 0.0
2017-Aug-18 07:28N 59°53' E 030°13'0 0.0
2017-Aug-18 06:58N 59°53' E 030°13'0 0.0
2017-Aug-18 06:28N 59°53' E 030°13'0 0.0
2017-Aug-18 05:58N 59°53' E 030°13'0 0.0
2017-Aug-18 05:28N 59°53' E 030°13'0 0.0
2017-Aug-18 04:58N 59°53' E 030°13'0 0.0
2017-Aug-18 04:28N 59°53' E 030°13'0 0.2
2017-Aug-18 04:00N 59°53' E 030°13'1 1.6
2017-Aug-18 03:30N 59°53' E 030°12'3 6.1
2017-Aug-18 03:01N 59°54' E 030°06'611.4
2017-Aug-18 02:30N 59°56' E 029°56'510.8
2017-Aug-18 02:00N 59°59' E 029°46'5 9.3
2017-Aug-18 01:30N 60°00' E 029°37'611.0
2017-Aug-18 01:00N 60°01' E 029°26'1 2.8
2017-Aug-18 00:30N 60°01' E 029°24'0 0.2
2017-Aug-17 23:55N 60°01' E 029°24'0 0.1
2017-Aug-17 23:28N 60°01' E 029°24'0 0.0
2017-Aug-17 22:52N 60°01' E 029°24'0 0.0
2017-Aug-17 22:28N 60°01' E 029°24'0 0.0
2017-Aug-17 20:42N 60°01' E 029°24'0 0.0
2017-Aug-17 20:24N 60°01' E 029°24'0 0.0
2017-Aug-17 19:54N 60°01' E 029°24'0 0.0
2017-Aug-17 19:27N 60°01' E 029°24'0 0.0
2017-Aug-17 18:14N 60°01' E 029°24'0 0.0
2017-Aug-17 17:59N 60°01' E 029°24'0 0.0
2017-Aug-17 17:23N 60°01' E 029°24'0 0.2
2017-Aug-17 17:00N 60°01' E 029°24'0 0.0
2017-Aug-17 16:30N 60°01' E 029°24'0 0.0
2017-Aug-17 16:00N 60°01' E 029°24'1 1.7
2017-Aug-17 15:28N 60°01' E 029°22'5 8.7
2017-Aug-17 14:56N 60°02' E 029°13'512.3
2017-Aug-17 14:30N 60°02' E 029°02'611.2
2017-Aug-17 14:00N 60°02' E 028°51'611.7
2017-Aug-17 13:30N 60°02' E 028°39'612.8
2017-Aug-17 13:01N 60°03' E 028°27'510.6
2017-Aug-17 12:30N 60°06' E 028°18'611.5
2017-Aug-17 12:00N 60°08' E 028°07'611.8
2017-Aug-17 11:30N 60°10' E 027°56'611.8
2017-Aug-17 11:00N 60°10' E 027°44'612.2
2017-Aug-17 10:30N 60°07' E 027°34'612.9
2017-Aug-17 10:01N 60°04' E 027°23'612.1
2017-Aug-17 09:30N 60°01' E 027°12'611.7
2017-Aug-17 09:01N 59°58' E 027°02'612.3
2017-Aug-17 08:30N 59°59' E 026°50'612.3
2017-Aug-17 08:00N 59°59' E 026°37'612.7
2017-Aug-17 07:30N 59°58' E 026°25'612.1
2017-Aug-17 07:00N 59°56' E 026°14'612.4
2017-Aug-17 06:30N 59°54' E 026°02'612.4
2017-Aug-17 06:00N 59°53' E 025°50'612.8
2017-Aug-17 05:30N 59°51' E 025°37'612.4
2017-Aug-17 05:00N 59°50' E 025°25'612.8
2017-Aug-17 04:30N 59°49' E 025°13'713.0
2017-Aug-17 04:00N 59°47' E 025°00'612.5
2017-Aug-17 03:30N 59°46' E 024°48'612.4
2017-Aug-17 03:01N 59°45' E 024°36'612.3
2017-Aug-17 02:30N 59°43' E 024°24'612.7
2017-Aug-17 02:01N 59°42' E 024°12'612.7
2017-Aug-17 01:30N 59°40' E 023°60'612.3
2017-Aug-17 01:00N 59°38' E 023°48'611.8
2017-Aug-17 00:30N 59°36' E 023°37'611.7
2017-Aug-17 00:00N 59°34' E 023°26'611.5
2017-Aug-16 23:30N 59°32' E 023°16'611.5
2017-Aug-16 23:00N 59°30' E 023°05'611.8
2017-Aug-16 22:30N 59°28' E 022°54'611.6
2017-Aug-16 22:01N 59°26' E 022°43'611.6
2017-Aug-16 21:30N 59°23' E 022°34'612.5
2017-Aug-16 21:00N 59°19' E 022°24'713.2
2017-Aug-16 20:31N 59°15' E 022°14'612.3
2017-Aug-16 20:00N 59°11' E 022°05'611.8
2017-Aug-16 19:30N 59°07' E 021°56'5 9.7
2017-Aug-16 19:00N 59°04' E 021°48'611.8
2017-Aug-16 18:30N 59°00' E 021°40'612.5
2017-Aug-16 18:00N 58°55' E 021°36'612.5
2017-Aug-16 17:30N 58°49' E 021°32'712.4
2017-Aug-16 16:57N 58°42' E 021°28'912.9
2017-Aug-16 16:15N 58°33' E 021°23'512.7
2017-Aug-16 15:50N 58°28' E 021°19'912.7
2017-Aug-16 15:09N 58°20' E 021°14'612.7
2017-Aug-16 14:41N 58°15' E 021°10'213.1
2017-Aug-16 14:30N 58°13' E 021°09'714.6
2017-Aug-16 14:00N 58°06' E 021°04'713.8
2017-Aug-16 13:30N 57°59' E 021°01'713.3
2017-Aug-16 13:00N 57°53' E 020°57'713.2
2017-Aug-16 12:30N 57°46' E 020°53'713.5
2017-Aug-16 12:00N 57°40' E 020°50'713.2
2017-Aug-16 11:30N 57°34' E 020°47'713.4
2017-Aug-16 11:00N 57°27' E 020°44'713.2
2017-Aug-16 10:30N 57°21' E 020°41'612.3
2017-Aug-16 10:00N 57°15' E 020°38'712.7
2017-Aug-16 09:29N 57°08' E 020°35'714.3
2017-Aug-16 09:00N 57°02' E 020°32'612.7
2017-Aug-16 08:30N 56°55' E 020°29'612.5
2017-Aug-16 08:00N 56°49' E 020°26'714.4
2017-Aug-16 07:30N 56°42' E 020°23'712.7
2017-Aug-16 06:59N 56°36' E 020°20'612.9
2017-Aug-16 06:30N 56°30' E 020°17'712.7
2017-Aug-16 06:00N 56°24' E 020°14'714.1
2017-Aug-16 05:29N 56°17' E 020°11'611.4
2017-Aug-16 04:59N 56°11' E 020°08'712.8
2017-Aug-16 04:28N 56°05' E 020°06'713.0
2017-Aug-16 03:56N 55°58' E 020°02'613.0
2017-Aug-16 03:30N 55°53' E 019°60'713.1
2017-Aug-16 03:00N 55°46' E 019°57'713.2
2017-Aug-16 02:31N 55°40' E 019°54'713.2
2017-Aug-16 02:00N 55°33' E 019°51'713.2
2017-Aug-16 01:30N 55°27' E 019°48'713.1
2017-Aug-16 01:01N 55°21' E 019°45'713.2
2017-Aug-16 00:31N 55°14' E 019°43'713.3
2017-Aug-16 00:01N 55°08' E 019°40'612.8
2017-Aug-15 23:31N 55°02' E 019°38'713.1
2017-Aug-15 23:00N 54°55' E 019°38'613.0
2017-Aug-15 22:31N 54°49' E 019°38'611.4
2017-Aug-15 22:01N 54°43' E 019°41'713.1
2017-Aug-15 21:31N 54°39' E 019°51'4 9.0
2017-Aug-15 21:01N 54°38' E 019°58'5 9.6
2017-Aug-15 20:31N 54°39' E 020°06'5 8.1
2017-Aug-15 19:50N 54°41' E 020°15'3 8.4
2017-Aug-15 19:31N 54°41' E 020°20'5 0.4
2017-Aug-15 07:23N 54°42' E 020°28'0 0.0
2017-Aug-15 06:59N 54°42' E 020°28'0 0.0
2017-Aug-15 06:29N 54°42' E 020°28'0 0.0
2017-Aug-15 05:59N 54°42' E 020°28'0 0.0
2017-Aug-15 05:29N 54°42' E 020°28'0 0.0
2017-Aug-15 04:59N 54°42' E 020°28'0 0.0
2017-Aug-15 04:29N 54°42' E 020°28'0 0.0
2017-Aug-15 03:56N 54°42' E 020°28'0 0.0
2017-Aug-15 03:29N 54°42' E 020°28'0 0.0
2017-Aug-15 02:59N 54°42' E 020°28'0 0.0
2017-Aug-15 02:30N 54°42' E 020°28'1 1.0
2017-Aug-15 01:59N 54°42' E 020°27'3 6.1
2017-Aug-15 01:30N 54°41' E 020°22'4 7.6
2017-Aug-15 01:00N 54°41' E 020°15'4 7.4
2017-Aug-15 00:30N 54°40' E 020°09'4 7.6
2017-Aug-15 00:00N 54°39' E 020°03'4 7.6
2017-Aug-14 23:30N 54°38' E 019°57'4 7.4
2017-Aug-14 23:00N 54°39' E 019°51'1 2.5
2017-Aug-14 22:29N 54°39' E 019°49'0 0.0
2017-Aug-14 03:11N 54°39' E 019°49'0 0.0
2017-Aug-13 11:11N 54°39' E 019°49'0 0.0
2017-Aug-13 10:59N 54°39' E 019°49'0 0.0
2017-Aug-13 07:53N 54°39' E 019°49'0 0.0
2017-Aug-13 06:50N 54°39' E 019°49'0 0.0
2017-Aug-13 06:20N 54°39' E 019°49'0 0.0
2017-Aug-13 05:08N 54°39' E 019°49'0 0.0
2017-Aug-13 03:59N 54°39' E 019°49'0 0.0
2017-Aug-13 03:17N 54°39' E 019°49'0 0.0
2017-Aug-13 02:59N 54°39' E 019°49'0 0.0
2017-Aug-13 02:29N 54°39' E 019°49'0 0.0
2017-Aug-13 01:59N 54°39' E 019°49'0 0.0
2017-Aug-13 01:29N 54°39' E 019°49'0 0.0
2017-Aug-12 23:56N 54°39' E 019°49'0 0.0
2017-Aug-12 23:29N 54°39' E 019°49'0 0.0
2017-Aug-12 22:59N 54°39' E 019°49'0 0.0
2017-Aug-12 22:29N 54°39' E 019°49'0 0.0
2017-Aug-12 19:17N 54°39' E 019°49'0 0.0
2017-Aug-12 18:59N 54°39' E 019°49'0 0.0
2017-Aug-12 18:17N 54°39' E 019°49'0 0.0
2017-Aug-12 17:59N 54°39' E 019°49'0 0.0
2017-Aug-12 17:02N 54°39' E 019°49'0 0.1
2017-Aug-12 16:56N 54°39' E 019°49'0 0.0
2017-Aug-12 16:05N 54°39' E 019°49'0 0.0
2017-Aug-12 14:56N 54°39' E 019°49'0 0.0
2017-Aug-12 14:29N 54°39' E 019°49'0 0.0
2017-Aug-12 13:59N 54°39' E 019°49'0 0.0
2017-Aug-12 13:29N 54°39' E 019°49'0 0.0
2017-Aug-12 12:53N 54°39' E 019°49'0 0.0
2017-Aug-12 12:29N 54°39' E 019°49'0 0.0
2017-Aug-12 11:59N 54°39' E 019°49'0 0.0
2017-Aug-12 11:29N 54°39' E 019°49'0 0.0
2017-Aug-12 10:56N 54°39' E 019°49'0 0.0
2017-Aug-12 10:29N 54°39' E 019°49'0 0.0
2017-Aug-12 09:59N 54°39' E 019°49'0 0.0
2017-Aug-12 09:17N 54°39' E 019°49'0 0.0
2017-Aug-12 08:59N 54°39' E 019°49'0 0.0
2017-Aug-12 08:29N 54°39' E 019°49'0 0.0
2017-Aug-12 07:56N 54°39' E 019°49'0 0.0
2017-Aug-12 07:29N 54°39' E 019°49'0 0.0
2017-Aug-12 06:56N 54°39' E 019°49'0 0.2
2017-Aug-12 06:23N 54°39' E 019°49'0 0.1
2017-Aug-12 05:59N 54°39' E 019°49'0 0.1
2017-Aug-12 05:29N 54°39' E 019°49'0 0.2
2017-Aug-12 04:59N 54°39' E 019°49'0 0.2
2017-Aug-12 04:29N 54°39' E 019°49'0 0.2
2017-Aug-12 03:53N 54°39' E 019°49'0 0.1
2017-Aug-12 03:05N 54°38' E 019°49'0 0.0
2017-Aug-12 02:47N 54°38' E 019°49'0 0.0
2017-Aug-12 02:29N 54°38' E 019°49'0 0.0
2017-Aug-12 01:59N 54°38' E 019°49'0 0.0
2017-Aug-11 16:53N 54°38' E 019°48'0 0.0
2017-Aug-11 16:17N 54°38' E 019°48'0 0.0
2017-Aug-11 15:59N 54°38' E 019°48'0 0.0
2017-Aug-11 15:23N 54°38' E 019°48'0 0.0
2017-Aug-11 14:59N 54°38' E 019°48'0 0.0
2017-Aug-11 14:23N 54°38' E 019°48'0 0.0
2017-Aug-11 10:17N 54°38' E 019°48'0 0.0
2017-Aug-11 09:14N 54°38' E 019°48'0 0.0
2017-Aug-11 08:59N 54°38' E 019°48'0 0.0
2017-Aug-11 08:29N 54°38' E 019°48'0 0.1
2017-Aug-11 07:59N 54°38' E 019°48'0 0.0
2017-Aug-11 07:23N 54°38' E 019°48'0 0.1
2017-Aug-11 06:53N 54°38' E 019°48'0 0.2
2017-Aug-11 06:26N 54°39' E 019°48'0 0.1
2017-Aug-11 05:59N 54°38' E 019°48'0 0.0
2017-Aug-11 05:29N 54°38' E 019°48'0 0.0
2017-Aug-11 04:59N 54°38' E 019°48'0 0.0
2017-Aug-11 04:29N 54°38' E 019°48'0 0.0
2017-Aug-11 03:59N 54°38' E 019°48'0 0.0
2017-Aug-11 03:29N 54°38' E 019°48'0 0.0
2017-Aug-11 02:59N 54°38' E 019°48'0 0.0
2017-Aug-11 02:29N 54°38' E 019°48'0 0.0
2017-Aug-11 01:59N 54°38' E 019°48'0 0.0
2017-Aug-11 01:29N 54°38' E 019°48'0 0.0
2017-Aug-11 00:59N 54°38' E 019°48'0 0.0
2017-Aug-11 00:29N 54°38' E 019°48'0 0.0
2017-Aug-10 23:59N 54°38' E 019°48'0 0.0
2017-Aug-10 23:29N 54°38' E 019°48'0 0.0
2017-Aug-10 22:59N 54°38' E 019°48'0 0.0
2017-Aug-10 22:29N 54°38' E 019°48'0 0.0
2017-Aug-10 21:59N 54°38' E 019°48'0 0.0
2017-Aug-10 21:29N 54°38' E 019°48'0 0.0
2017-Aug-10 20:59N 54°38' E 019°48'0 0.0
2017-Aug-10 20:29N 54°38' E 019°48'0 0.0
2017-Aug-10 19:59N 54°38' E 019°48'0 0.0
2017-Aug-10 19:29N 54°38' E 019°48'0 0.0
2017-Aug-10 18:59N 54°38' E 019°48'0 0.0
2017-Aug-10 18:29N 54°38' E 019°48'0 0.0
2017-Aug-10 17:59N 54°38' E 019°48'0 0.0
2017-Aug-10 17:29N 54°38' E 019°48'0 0.0
2017-Aug-10 16:59N 54°38' E 019°48'0 0.0
2017-Aug-10 16:29N 54°38' E 019°48'0 0.0
2017-Aug-10 15:59N 54°38' E 019°48'0 0.0
2017-Aug-10 15:29N 54°38' E 019°48'0 0.0
2017-Aug-10 14:59N 54°38' E 019°48'0 0.0
2017-Aug-10 14:26N 54°38' E 019°48'0 0.2
2017-Aug-10 13:47N 54°39' E 019°49'1 3.1
2017-Aug-10 13:26N 54°39' E 019°49'2 4.3
2017-Aug-10 12:52N 54°38' E 019°53'3 6.6
2017-Aug-10 12:29N 54°38' E 019°57'3 6.7
2017-Aug-10 12:00N 54°39' E 020°03'15 2.2
2017-Aug-10 04:56N 54°42' E 020°29'  

Dump ship's entire track history